Needmore, Indiana
Current Conditions -  °F | °C
As of 12:53 AM on Thursday 27 Nov 2014 (Local Time) from KBMG Reporting Station
Overcast Overcast  
Wind Chill: 22°   Ceiling: 2500
Heat Index: 30°   Visibility: 10mi
Dew Point: 25°   Wind: 8mph
Humidity: 82%   Direction: 10°N
Pressure: 30.1"   Gusts: NA
Location:  38.8737°N, 86.4563°W
Report Text: KBMG 270553Z AUTO 01007KT 10SM BKN025 BKN045 OVC060 M01/M04 A3010 RMK AO2 SNE0457 SLP199 P0000 60000 T10111039 10006 21011 53014
Loading
Personal Weather Stations






























Interactive Weather Map New forecast layout! Learn more

10-Day Weather Forecast

Advertisements
Track Severe Weather on mobile